createdAt,value
2022-12-25T00:00:51.787Z,90.84
2022-12-25T00:03:56.810Z,90.93
2022-12-25T00:06:59.769Z,90.93
2022-12-25T00:10:02.406Z,90.51
2022-12-25T00:13:04.873Z,90.22
2022-12-25T00:16:09.111Z,90.80
2022-12-25T00:19:12.756Z,91.29
2022-12-25T00:22:15.201Z,91.50
2022-12-25T00:25:17.650Z,90.96
2022-12-25T00:28:20.966Z,91.07
2022-12-25T00:31:24.918Z,91.61
2022-12-25T00:34:27.541Z,91.65
2022-12-25T00:37:30.100Z,91.15
2022-12-25T00:40:32.530Z,90.98
2022-12-25T00:43:36.269Z,91.15
2022-12-25T00:46:38.870Z,92.19
2022-12-25T00:49:41.509Z,93.08
2022-12-25T00:52:44.349Z,93.14
2022-12-25T00:55:55.069Z,92.58
2022-12-25T00:58:57.546Z,91.09
2022-12-25T01:02:20.160Z,90.99
2022-12-25T01:05:22.655Z,91.90
2022-12-25T01:08:26.132Z,92.05
2022-12-25T01:11:28.810Z,92.60
2022-12-25T01:14:31.189Z,93.26
2022-12-25T01:17:34.027Z,92.71
2022-12-25T01:20:36.420Z,92.44
2022-12-25T01:23:38.935Z,91.57
2022-12-25T01:26:41.304Z,91.81
2022-12-25T01:29:45.246Z,91.08
2022-12-25T01:32:47.570Z,91.03
2022-12-25T01:35:49.953Z,91.24
2022-12-25T01:38:54.112Z,91.39
2022-12-25T01:41:56.863Z,91.50
2022-12-25T01:45:32.317Z,91.29
2022-12-25T01:48:39.092Z,91.64
2022-12-25T01:51:47.520Z,92.35
2022-12-25T01:54:55.824Z,92.35
2022-12-25T01:57:58.523Z,93.48
2022-12-25T02:01:01.065Z,92.99
2022-12-25T02:04:16.493Z,92.82
2022-12-25T02:07:22.204Z,92.96
2022-12-25T02:10:25.060Z,89.73
2022-12-25T02:13:27.522Z,90.52
2022-12-25T02:16:35.553Z,91.05
2022-12-25T02:20:16.480Z,91.01
2022-12-25T02:23:21.546Z,91.25
2022-12-25T02:26:39.194Z,91.31
2022-12-25T02:29:53.498Z,91.76
2022-12-25T02:33:21.356Z,91.53
2022-12-25T02:36:29.502Z,91.40
2022-12-25T02:40:00.546Z,91.37
2022-12-25T02:43:25.477Z,91.46
2022-12-25T02:46:49.892Z,91.71
2022-12-25T02:50:12.697Z,92.21
2022-12-25T02:53:33.581Z,91.88
2022-12-25T02:56:56.260Z,90.88
2022-12-25T03:00:20.079Z,91.17
2022-12-25T03:03:44.397Z,90.97
2022-12-25T03:07:09.922Z,92.24
2022-12-25T03:10:33.658Z,90.98
2022-12-25T03:13:40.103Z,90.11
2022-12-25T03:16:50.822Z,90.05
2022-12-25T03:20:12.144Z,91.50
2022-12-25T03:23:36.784Z,91.99
2022-12-25T03:26:57.888Z,92.22
2022-12-25T03:30:19.360Z,92.45
2022-12-25T03:33:44.890Z,92.00
2022-12-25T03:37:24.972Z,92.41
2022-12-25T03:41:14.678Z,91.33
2022-12-25T03:44:38.452Z,91.05
2022-12-25T03:48:05.840Z,91.47
2022-12-25T03:51:31.487Z,91.49
2022-12-25T03:54:55.594Z,91.62
2022-12-25T03:58:16.257Z,91.70
2022-12-25T04:01:37.413Z,92.06
2022-12-25T04:04:58.109Z,91.55
2022-12-25T04:08:18.890Z,90.92
2022-12-25T04:11:39.476Z,90.60
2022-12-25T04:15:00.049Z,91.51
2022-12-25T04:18:20.676Z,92.24
2022-12-25T04:21:42.361Z,91.99
2022-12-25T04:25:03.207Z,92.03
2022-12-25T04:28:24.539Z,91.83
2022-12-25T04:31:45.853Z,92.32
2022-12-25T04:35:06.733Z,92.29
2022-12-25T04:38:09.146Z,91.20
2022-12-25T04:41:13.510Z,91.65
2022-12-25T04:44:15.927Z,91.46
2022-12-25T04:47:18.334Z,91.17
2022-12-25T04:50:20.688Z,91.21
2022-12-25T04:53:23.392Z,92.45
2022-12-25T04:56:25.749Z,91.65
2022-12-25T04:59:28.297Z,91.13
2022-12-25T05:02:31.564Z,91.12
2022-12-25T05:05:34.061Z,90.99
2022-12-25T05:08:37.394Z,90.84
2022-12-25T05:11:39.796Z,91.68
2022-12-25T05:14:42.293Z,93.03
2022-12-25T05:17:44.625Z,93.74
2022-12-25T05:20:54.193Z,94.36
2022-12-25T05:23:56.601Z,93.92
2022-12-25T05:26:58.918Z,93.07
2022-12-25T05:30:01.364Z,93.57
2022-12-25T05:33:03.866Z,92.70
2022-12-25T05:36:08.734Z,92.39
2022-12-25T05:39:11.086Z,92.33
2022-12-25T05:42:13.499Z,92.63
2022-12-25T05:45:15.870Z,92.06
2022-12-25T05:48:18.438Z,91.33
2022-12-25T05:51:20.877Z,90.86
2022-12-25T05:54:23.292Z,90.78
2022-12-25T05:57:28.633Z,90.87
2022-12-25T06:00:31.086Z,90.83
2022-12-25T06:03:33.484Z,91.52
2022-12-25T06:06:35.905Z,91.46
2022-12-25T06:09:38.325Z,91.00
2022-12-25T06:12:40.761Z,91.46
2022-12-25T06:15:43.146Z,91.09
2022-12-25T06:18:48.405Z,91.03
2022-12-25T06:21:54.542Z,90.71
2022-12-25T06:24:57.104Z,90.79
2022-12-25T06:27:59.458Z,90.99
2022-12-25T06:31:22.392Z,90.51
2022-12-25T06:34:25.026Z,91.45
2022-12-25T06:37:27.384Z,92.55
2022-12-25T06:40:29.937Z,92.04
2022-12-25T06:43:32.264Z,92.42
2022-12-25T06:46:34.805Z,90.95
2022-12-25T06:49:37.235Z,90.55
2022-12-25T06:52:39.643Z,90.58
2022-12-25T06:55:41.998Z,90.82
2022-12-25T06:58:45.901Z,91.12
2022-12-25T07:01:50.747Z,91.11
2022-12-25T07:04:53.924Z,91.02
2022-12-25T07:07:56.280Z,90.44
2022-12-25T07:10:58.650Z,89.74
2022-12-25T07:14:01.043Z,89.63
2022-12-25T07:17:03.419Z,89.21
2022-12-25T07:20:07.053Z,89.65
2022-12-25T07:23:09.477Z,90.23
2022-12-25T07:26:13.221Z,90.55
2022-12-25T07:29:16.252Z,90.27
2022-12-25T07:32:18.649Z,87.58
2022-12-25T07:35:20.957Z,80.29
2022-12-25T07:38:23.432Z,77.35
2022-12-25T07:41:26.048Z,74.82
2022-12-25T07:44:40.181Z,72.45
2022-12-25T07:47:43.385Z,71.40
2022-12-25T07:50:45.753Z,68.46
2022-12-25T07:53:48.140Z,68.83
2022-12-25T07:56:52.383Z,68.71
2022-12-25T07:59:54.781Z,65.34
2022-12-25T08:02:57.252Z,66.25
2022-12-25T08:06:01.816Z,65.62
2022-12-25T08:09:09.778Z,66.12
2022-12-25T08:12:12.212Z,62.55
2022-12-25T08:15:14.676Z,61.72
2022-12-25T08:18:17.025Z,59.70
2022-12-25T08:21:19.530Z,57.52
2022-12-25T08:24:22.620Z,56.21
2022-12-25T08:27:25.012Z,55.08
2022-12-25T08:30:28.344Z,53.56
2022-12-25T08:33:30.900Z,52.32
2022-12-25T08:36:33.313Z,50.19
2022-12-25T08:39:35.869Z,50.25
2022-12-25T08:42:38.345Z,49.63
2022-12-25T08:45:40.833Z,48.67
2022-12-25T08:48:45.514Z,47.50
2022-12-25T08:51:47.976Z,47.28
2022-12-25T08:54:50.836Z,45.16
2022-12-25T08:57:54.278Z,44.32
2022-12-25T09:00:56.964Z,44.03
2022-12-25T09:03:59.432Z,41.84
2022-12-25T09:07:02.707Z,42.57
2022-12-25T09:10:05.636Z,42.28
2022-12-25T09:13:08.481Z,41.92
2022-12-25T09:16:14.861Z,42.53
2022-12-25T09:19:17.395Z,40.85
2022-12-25T09:22:19.805Z,40.83
2022-12-25T09:25:22.335Z,42.26
2022-12-25T09:28:24.968Z,40.50
2022-12-25T09:31:27.468Z,42.93
2022-12-25T09:34:29.936Z,41.00
2022-12-25T09:37:32.307Z,41.15
2022-12-25T09:40:35.198Z,39.83
2022-12-25T09:43:42.350Z,40.44
2022-12-25T09:46:52.993Z,43.23
2022-12-25T09:50:08.038Z,45.68
2022-12-25T09:53:18.534Z,42.27
2022-12-25T09:56:25.965Z,41.31
2022-12-25T09:59:28.436Z,42.30
2022-12-25T10:03:01.900Z,39.24
2022-12-25T10:06:18.123Z,40.87
2022-12-25T10:09:33.519Z,38.67
2022-12-25T10:13:03.067Z,40.52
2022-12-25T10:16:20.348Z,41.63
2022-12-25T10:19:37.078Z,42.88
2022-12-25T10:22:46.592Z,41.46
2022-12-25T10:25:49.068Z,39.42
2022-12-25T10:29:01.179Z,39.77
2022-12-25T10:32:04.214Z,40.19
2022-12-25T10:35:10.793Z,40.62
2022-12-25T10:38:15.936Z,39.51
2022-12-25T10:41:32.325Z,40.32
2022-12-25T10:44:34.919Z,39.98
2022-12-25T10:47:42.697Z,41.12
2022-12-25T10:50:45.269Z,40.54
2022-12-25T10:53:47.674Z,40.72
2022-12-25T10:57:09.569Z,39.65
2022-12-25T11:00:23.962Z,38.71
2022-12-25T11:03:35.312Z,38.05
2022-12-25T11:06:37.866Z,36.71
2022-12-25T11:09:40.524Z,38.56
2022-12-25T11:12:45.524Z,38.21
2022-12-25T11:15:49.481Z,39.71
2022-12-25T11:18:54.383Z,38.37
2022-12-25T11:21:59.685Z,39.92
2022-12-25T11:25:13.617Z,42.54
2022-12-25T11:28:16.028Z,40.77
2022-12-25T11:31:22.086Z,42.42
2022-12-25T11:34:45.188Z,41.92
2022-12-25T11:37:53.806Z,42.25
2022-12-25T11:41:00.253Z,46.13
2022-12-25T11:44:11.596Z,48.71
2022-12-25T11:47:21.634Z,48.68
2022-12-25T11:50:37.829Z,46.00
2022-12-25T11:53:47.366Z,45.86
2022-12-25T11:56:50.331Z,46.81
2022-12-25T12:00:00.268Z,45.48
2022-12-25T12:03:28.170Z,47.77
2022-12-25T12:06:40.105Z,50.03
2022-12-25T12:09:48.536Z,48.54
2022-12-25T12:13:16.979Z,49.98
2022-12-25T12:16:19.456Z,49.24
2022-12-25T12:19:28.216Z,48.28
2022-12-25T12:22:30.612Z,47.18
2022-12-25T12:25:40.138Z,45.55
2022-12-25T12:28:46.813Z,47.19
2022-12-25T12:31:51.569Z,52.53
2022-12-25T12:34:54.917Z,51.75
2022-12-25T12:38:14.920Z,51.58
2022-12-25T12:41:18.223Z,53.12
2022-12-25T12:44:25.040Z,52.27
2022-12-25T12:47:48.524Z,52.42
2022-12-25T12:51:02.997Z,51.27
2022-12-25T12:54:23.686Z,50.40
2022-12-25T12:57:29.813Z,51.95
2022-12-25T13:00:46.787Z,53.73
2022-12-25T13:04:10.765Z,55.37
2022-12-25T13:07:43.983Z,58.92
2022-12-25T13:11:19.417Z,65.14
2022-12-25T13:14:23.916Z,68.38
2022-12-25T13:17:28.346Z,70.75
2022-12-25T13:20:55.409Z,72.08
2022-12-25T13:24:00.851Z,72.24
2022-12-25T13:27:24.738Z,70.53
2022-12-25T13:30:28.013Z,72.70
2022-12-25T13:33:30.585Z,73.99
2022-12-25T13:36:38.493Z,75.62
2022-12-25T13:40:02.001Z,76.33
2022-12-25T13:43:05.063Z,77.14
2022-12-25T13:46:07.524Z,77.03
2022-12-25T13:49:21.709Z,77.18
2022-12-25T13:52:24.287Z,77.79
2022-12-25T13:55:28.919Z,77.62
2022-12-25T13:58:34.982Z,77.18
2022-12-25T14:01:43.121Z,78.96
2022-12-25T14:04:45.737Z,78.62
2022-12-25T14:07:53.549Z,77.82
2022-12-25T14:10:57.063Z,75.22
2022-12-25T14:14:04.066Z,74.53
2022-12-25T14:17:06.552Z,74.82
2022-12-25T14:20:24.248Z,75.31
2022-12-25T14:23:27.569Z,75.58
2022-12-25T14:26:33.498Z,76.74
2022-12-25T14:29:44.196Z,78.83
2022-12-25T14:32:52.779Z,81.54
2022-12-25T14:35:56.519Z,82.48
2022-12-25T14:39:07.443Z,82.39
2022-12-25T14:42:20.428Z,83.73
2022-12-25T14:45:38.527Z,83.89
2022-12-25T14:48:41.209Z,83.15
2022-12-25T14:51:43.688Z,82.91
2022-12-25T14:54:51.835Z,83.10
2022-12-25T14:58:07.741Z,82.38
2022-12-25T15:01:21.239Z,83.17
2022-12-25T15:04:24.988Z,83.93
2022-12-25T15:07:31.518Z,86.29
2022-12-25T15:13:58.383Z,85.15
2022-12-25T15:17:01.713Z,86.15
2022-12-25T15:20:05.434Z,85.41
2022-12-25T15:23:20.996Z,85.51
2022-12-25T15:26:25.025Z,85.60
2022-12-25T15:30:07.381Z,84.30
2022-12-25T15:32:50.408Z,85.43
2022-12-25T15:35:52.837Z,85.71
2022-12-25T15:38:55.798Z,84.55
2022-12-25T15:42:12.025Z,85.19
2022-12-25T15:45:22.045Z,85.49
2022-12-25T15:48:24.433Z,85.19
2022-12-25T15:51:26.840Z,85.77
2022-12-25T15:54:30.103Z,88.14
2022-12-25T15:57:33.358Z,87.30
2022-12-25T16:00:35.912Z,87.89
2022-12-25T16:03:38.401Z,87.01
2022-12-25T16:06:41.069Z,86.87
2022-12-25T16:09:43.964Z,87.48
2022-12-25T16:12:46.954Z,86.62
2022-12-25T16:15:49.401Z,87.24
2022-12-25T16:18:51.776Z,86.31
2022-12-25T16:21:54.213Z,87.29
2022-12-25T16:24:57.777Z,86.51
2022-12-25T16:28:00.181Z,87.28
2022-12-25T16:31:02.589Z,86.98
2022-12-25T16:34:06.656Z,87.20
2022-12-25T16:37:09.034Z,86.66
2022-12-25T16:40:11.642Z,86.26
2022-12-25T16:43:20.308Z,86.45
2022-12-25T16:46:26.133Z,86.87
2022-12-25T16:49:28.517Z,87.71
2022-12-25T16:52:33.102Z,87.74
2022-12-25T16:55:37.715Z,88.38
2022-12-25T16:58:41.226Z,88.45
2022-12-25T17:01:43.796Z,88.26
2022-12-25T17:04:47.282Z,87.91
2022-12-25T17:07:49.750Z,88.26
2022-12-25T17:10:52.186Z,88.51
2022-12-25T17:13:55.405Z,88.61
2022-12-25T17:16:57.869Z,88.68
2022-12-25T17:20:00.403Z,88.75
2022-12-25T17:23:02.737Z,88.87
2022-12-25T17:26:06.340Z,88.66
2022-12-25T17:29:08.785Z,88.58
2022-12-25T17:32:12.646Z,88.17
2022-12-25T17:35:15.083Z,87.15
2022-12-25T17:38:17.509Z,86.80
2022-12-25T17:41:20.819Z,87.70
2022-12-25T17:44:23.548Z,88.07
2022-12-25T17:47:26.281Z,88.27
2022-12-25T17:50:28.828Z,87.97
2022-12-25T17:53:31.471Z,89.50
2022-12-25T17:56:34.083Z,89.85
2022-12-25T17:59:36.820Z,89.10
2022-12-25T18:02:40.101Z,89.13
2022-12-25T18:05:42.728Z,89.15
2022-12-25T18:08:46.508Z,88.44
2022-12-25T18:11:48.930Z,89.48
2022-12-25T18:14:51.466Z,89.01
2022-12-25T18:17:53.793Z,88.10
2022-12-25T18:20:56.152Z,88.51
2022-12-25T18:23:58.582Z,88.56
2022-12-25T18:27:00.969Z,88.38
2022-12-25T18:30:04.198Z,88.39
2022-12-25T18:33:06.733Z,89.51
2022-12-25T18:36:11.935Z,89.16
2022-12-25T18:39:14.620Z,88.89
2022-12-25T18:42:35.219Z,89.11
2022-12-25T18:45:37.852Z,89.48
2022-12-25T18:48:41.164Z,89.56
2022-12-25T18:51:43.693Z,89.66
2022-12-25T18:54:46.132Z,89.85
2022-12-25T18:57:49.480Z,89.84
2022-12-25T19:00:52.807Z,89.93
2022-12-25T19:04:02.074Z,89.69
2022-12-25T19:07:07.302Z,90.03
2022-12-25T19:10:10.494Z,89.47
2022-12-25T19:13:12.986Z,90.05
2022-12-25T19:16:15.922Z,90.03
2022-12-25T19:19:21.539Z,89.85
2022-12-25T19:22:24.233Z,90.21
2022-12-25T19:25:27.796Z,89.78
2022-12-25T19:28:30.382Z,89.94
2022-12-25T19:31:33.065Z,89.29
2022-12-25T19:34:35.807Z,89.64
2022-12-25T19:37:38.339Z,89.54
2022-12-25T19:40:40.848Z,89.30
2022-12-25T19:43:47.435Z,89.45
2022-12-25T19:46:50.074Z,89.29
2022-12-25T19:49:53.329Z,89.71
2022-12-25T19:52:56.530Z,90.40
2022-12-25T19:56:02.109Z,89.52
2022-12-25T19:59:04.572Z,90.53
2022-12-25T20:02:07.180Z,90.81
2022-12-25T20:05:09.796Z,90.73
2022-12-25T20:08:12.215Z,91.05
2022-12-25T20:11:19.537Z,90.18
2022-12-25T20:14:22.229Z,91.04
2022-12-25T20:17:24.793Z,90.79
2022-12-25T20:20:27.151Z,90.88
2022-12-25T20:23:29.947Z,90.66
2022-12-25T20:26:32.424Z,91.08
2022-12-25T20:29:41.597Z,90.60
2022-12-25T20:32:50.122Z,90.10
2022-12-25T20:35:53.067Z,90.51
2022-12-25T20:38:55.477Z,91.18
2022-12-25T20:41:57.858Z,91.75
2022-12-25T20:45:00.435Z,91.06
2022-12-25T20:48:05.100Z,91.13
2022-12-25T20:51:14.345Z,91.45
2022-12-25T20:54:16.684Z,90.68
2022-12-25T20:57:19.266Z,89.99
2022-12-25T21:00:22.953Z,89.44
2022-12-25T21:03:25.512Z,89.65
2022-12-25T21:06:28.022Z,89.79
2022-12-25T21:09:30.677Z,89.52
2022-12-25T21:12:33.080Z,89.25
2022-12-25T21:15:35.437Z,88.92
2022-12-25T21:18:38.171Z,88.76
2022-12-25T21:21:43.077Z,88.30
2022-12-25T21:24:45.443Z,89.37
2022-12-25T21:27:47.842Z,88.64
2022-12-25T21:30:50.224Z,88.54
2022-12-25T21:33:54.395Z,89.17
2022-12-25T21:36:56.929Z,89.54
2022-12-25T21:39:59.881Z,89.59
2022-12-25T21:43:02.358Z,89.21
2022-12-25T21:46:10.171Z,89.56
2022-12-25T21:49:12.624Z,88.78
2022-12-25T21:52:14.951Z,88.00
2022-12-25T21:55:17.337Z,88.17
2022-12-25T21:58:19.704Z,87.68
2022-12-25T22:01:22.192Z,88.53
2022-12-25T22:04:25.066Z,88.71
2022-12-25T22:07:27.532Z,87.73
2022-12-25T22:10:31.101Z,88.19
2022-12-25T22:13:51.964Z,87.72
2022-12-25T22:17:12.549Z,87.83
2022-12-25T22:20:18.230Z,88.73
2022-12-25T22:23:20.630Z,88.17
2022-12-25T22:26:22.970Z,88.38
2022-12-25T22:29:25.766Z,88.77
2022-12-25T22:32:28.843Z,89.35
2022-12-25T22:35:31.267Z,88.60
2022-12-25T22:38:34.342Z,89.28
2022-12-25T22:41:36.723Z,88.47
2022-12-25T22:44:39.228Z,88.15
2022-12-25T22:47:41.958Z,88.28
2022-12-25T22:50:44.401Z,89.33
2022-12-25T22:53:46.731Z,89.27
2022-12-25T22:56:51.373Z,88.94
2022-12-25T22:59:53.874Z,89.20
2022-12-25T23:02:56.413Z,89.97
2022-12-25T23:05:58.898Z,89.61
2022-12-25T23:09:01.391Z,89.59
2022-12-25T23:12:04.238Z,89.90
2022-12-25T23:15:07.132Z,89.62
2022-12-25T23:18:28.352Z,89.61
2022-12-25T23:21:49.557Z,89.49
2022-12-25T23:25:10.093Z,89.30
2022-12-25T23:28:12.443Z,89.84
2022-12-25T23:31:22.586Z,89.60
2022-12-25T23:34:24.999Z,89.14
2022-12-25T23:37:27.347Z,89.61
2022-12-25T23:40:33.625Z,90.25
2022-12-25T23:43:36.204Z,90.13
2022-12-25T23:46:39.700Z,89.54
2022-12-25T23:49:42.239Z,90.00
2022-12-25T23:52:45.144Z,90.08
2022-12-25T23:55:55.070Z,90.03
2022-12-25T23:58:58.198Z,89.84
